This is the latest recevied weather packets stored in our database for station/object SM7SJR-13. If no packets are shown the sender has not sent any weather packets the latest 10 day(s).
| Time | Temp. | Humidity | Pressure | Rain* | Wind** | Luminosity | Snow |
|---|---|---|---|---|---|---|---|
| 1777859103 | 7.78° C | 95% | 1004.8 hPa | 0 mm | - | 0 W/m² | - |
| 1777841104 | 7.22° C | 88% | 1007.6 hPa | 0 mm | - | 0 W/m² | - |
| 1777838404 | 8.89° C | 86% | 1007.7 hPa | 0 mm | - | 0 W/m² | - |
| 1777832103 | 10.56° C | 82% | 1007.4 hPa | 0 mm | - | 5 W/m² | - |
| 1777829405 | 11.11° C | 80% | 1007 hPa | 0 mm | - | 23 W/m² | - |
| 1777828504 | 11.11° C | 80% | 1007 hPa | 0 mm | - | 26 W/m² | - |
| 1777822204 | 23.33° C | 41% | 1006 hPa | 0 mm | - | 362 W/m² | - |
| 1777816804 | 24.44° C | 38% | 1006.2 hPa | 0 mm | - | 471 W/m² | - |
| 1777813204 | 24.44° C | 36% | 1006.2 hPa | 0 mm | - | 610 W/m² | - |
| 1777809604 | 25° C | 32% | 1006.3 hPa | 0 mm | - | 524 W/m² | - |
| 1777803304 | 23.89° C | 41% | 1007.3 hPa | 0 mm | - | 714 W/m² | - |
| 1777798804 | 21.67° C | 44% | 1007.4 hPa | 0 mm | - | 490 W/m² | - |
| 1777793404 | 21.11° C | 54% | 1007.6 hPa | 0 mm | - | 394 W/m² | - |
| 1777790704 | 19.44° C | 61% | 1007.7 hPa | 0 mm | - | 443 W/m² | - |
| 1777788003 | 17.22° C | 62% | 1007.9 hPa | 0 mm | - | 353 W/m² | - |
| 1777786204 | 16.11° C | 65% | 1008 hPa | 0 mm | - | 248 W/m² | - |
| 1777785304 | 15.56° C | 66% | 1008.1 hPa | 0 mm | - | 192 W/m² | - |
| 1777783504 | 12.78° C | 78% | 1008.1 hPa | 0 mm | - | 169 W/m² | - |
| 1777782604 | 11.11° C | 84% | 1008.1 hPa | 0 mm | - | 63 W/m² | - |
| 1777781704 | 10° C | 85% | 1008.1 hPa | 0 mm | - | 88 W/m² | - |
| 1777780804 | 9.44° C | 83% | 1008.1 hPa | 0 mm | - | 54 W/m² | - |
| 1777776303 | 12.78° C | 70% | 1008.2 hPa | 0 mm | - | 0 W/m² | - |
| 1777772704 | 14.44° C | 64% | 1008.4 hPa | 0 mm | - | 0 W/m² | - |
| 1777766404 | 15° C | 61% | 1009 hPa | 0 mm | - | 0 W/m² | - |
| 1777765504 | 14.44° C | 62% | 1009 hPa | 0 mm | - | 0 W/m² | - |
* Rain latest hour (hover to see other rain measurements)
** Current wind speed in m/s (hover to see current wind gust speed)